createdAt,value
2023-04-16T00:00:31.748Z,97551.25
2023-04-16T00:03:02.136Z,97541.16
2023-04-16T00:05:32.425Z,97546.94
2023-04-16T00:08:02.642Z,97547.44
2023-04-16T00:10:32.815Z,97547.91
2023-04-16T00:13:05.770Z,97539.91
2023-04-16T00:15:36.049Z,97547.63
2023-04-16T00:18:06.373Z,97547.91
2023-04-16T00:20:36.565Z,97552.47
2023-04-16T00:23:06.877Z,97546.94
2023-04-16T00:25:37.039Z,97545.63
2023-04-16T00:28:11.095Z,97549.63
2023-04-16T00:30:41.493Z,97556.88
2023-04-16T00:33:11.691Z,97555.34
2023-04-16T00:35:42.082Z,97558.09
2023-04-16T00:38:12.289Z,97550.47
2023-04-16T00:40:42.652Z,97558.28
2023-04-16T00:43:15.578Z,97556.47
2023-04-16T00:45:45.829Z,97556.28
2023-04-16T00:48:16.286Z,97555.69
2023-04-16T00:50:46.564Z,97551.28
2023-04-16T00:53:17.351Z,97553.69
2023-04-16T00:55:48.104Z,97549.91
2023-04-16T00:58:21.749Z,97562.88
2023-04-16T01:00:52.348Z,97563.34
2023-04-16T01:03:22.753Z,97565.75
2023-04-16T01:05:53.221Z,97562.41
2023-04-16T01:08:24.496Z,97572.28
2023-04-16T01:10:54.813Z,97574.16
2023-04-16T01:13:27.916Z,97573.72
2023-04-16T01:15:58.197Z,97569.59
2023-04-16T01:18:29.603Z,97568.63
2023-04-16T01:21:02.750Z,97580.00
2023-04-16T01:23:36.015Z,97574.47
2023-04-16T01:26:06.672Z,97576.00
2023-04-16T01:28:36.927Z,97570.47
2023-04-16T01:31:07.504Z,97578.78
2023-04-16T01:34:10.037Z,97581.03
2023-04-16T01:36:43.017Z,97584.28
2023-04-16T01:39:15.906Z,97591.81
2023-04-16T01:41:46.705Z,97588.41
2023-04-16T01:44:16.918Z,97585.47
2023-04-16T01:46:48.036Z,97587.00
2023-04-16T01:49:18.859Z,97587.56
2023-04-16T01:51:51.887Z,97582.69
2023-04-16T01:54:22.111Z,97584.97
2023-04-16T01:56:52.310Z,97591.56
2023-04-16T01:59:22.487Z,97590.91
2023-04-16T02:01:52.925Z,97587.88
2023-04-16T02:04:23.323Z,97586.34
2023-04-16T02:06:56.194Z,97590.91
2023-04-16T02:09:26.914Z,97599.19
2023-04-16T02:11:57.367Z,97592.75
2023-04-16T02:14:27.681Z,97588.13
2023-04-16T02:16:57.944Z,97601.81
2023-04-16T02:19:41.636Z,97595.03
2023-04-16T02:22:15.981Z,97597.03
2023-04-16T02:24:46.365Z,97606.44
2023-04-16T02:27:16.772Z,97601.69
2023-04-16T02:29:47.141Z,97599.28
2023-04-16T02:32:20.558Z,97600.69
2023-04-16T02:34:51.075Z,97609.28
2023-04-16T02:37:23.898Z,97611.75
2023-04-16T02:39:54.279Z,97614.69
2023-04-16T02:42:24.544Z,97611.31
2023-04-16T02:44:54.766Z,97611.50
2023-04-16T02:47:25.041Z,97614.44
2023-04-16T02:49:55.300Z,97608.63
2023-04-16T02:52:28.174Z,97609.53
2023-04-16T02:54:58.340Z,97612.91
2023-04-16T02:57:28.587Z,97617.53
2023-04-16T02:59:58.811Z,97621.97
2023-04-16T03:02:29.336Z,97627.63
2023-04-16T03:04:59.633Z,97620.38
2023-04-16T03:07:32.519Z,97618.38
2023-04-16T03:10:02.982Z,97623.91
2023-04-16T03:12:33.227Z,97624.81
2023-04-16T03:15:03.624Z,97626.47
2023-04-16T03:17:33.934Z,97632.31
2023-04-16T03:20:05.237Z,97623.25
2023-04-16T03:22:38.589Z,97622.28
2023-04-16T03:25:09.640Z,97629.69
2023-04-16T03:27:39.927Z,97634.75
2023-04-16T03:30:11.439Z,97635.22
2023-04-16T03:32:41.892Z,97634.88
2023-04-16T03:35:13.413Z,97631.22
2023-04-16T03:37:46.619Z,97641.78
2023-04-16T03:40:17.632Z,97636.88
2023-04-16T03:42:47.835Z,97635.34
2023-04-16T03:45:18.164Z,97642.41
2023-04-16T03:47:53.043Z,97637.78
2023-04-16T03:50:26.362Z,97645.81
2023-04-16T03:52:59.247Z,97645.34
2023-04-16T03:55:29.552Z,97647.56
2023-04-16T03:58:03.321Z,97652.78
2023-04-16T04:00:35.212Z,97657.06
2023-04-16T04:03:17.493Z,97658.19
2023-04-16T04:05:49.840Z,97664.81
2023-04-16T04:08:29.938Z,97664.66
2023-04-16T04:11:00.201Z,97661.91
2023-04-16T04:13:31.200Z,97665.31
2023-04-16T04:16:02.069Z,97674.06
2023-04-16T04:18:33.074Z,97670.06
2023-04-16T04:21:03.411Z,97673.31
2023-04-16T04:23:36.637Z,97669.94
2023-04-16T04:26:07.845Z,97678.06
2023-04-16T04:28:38.569Z,97675.75
2023-04-16T04:31:08.992Z,97681.47
2023-04-16T04:33:39.238Z,97679.94
2023-04-16T04:36:10.854Z,97683.16
2023-04-16T04:38:43.774Z,97687.31
2023-04-16T04:41:14.045Z,97690.97
2023-04-16T04:43:44.238Z,97693.41
2023-04-16T04:46:15.593Z,97695.84
2023-04-16T04:48:46.162Z,97696.59
2023-04-16T04:51:16.491Z,97695.84
2023-04-16T04:53:51.794Z,97695.56
2023-04-16T04:56:22.017Z,97700.81
2023-04-16T04:58:53.042Z,97701.56
2023-04-16T05:01:23.799Z,97701.75
2023-04-16T05:03:54.272Z,97706.19
2023-04-16T05:06:24.626Z,97709.88
2023-04-16T05:08:57.508Z,97709.53
2023-04-16T05:11:27.740Z,97714.63
2023-04-16T05:13:57.942Z,97723.94
2023-04-16T05:16:28.163Z,97716.72
2023-04-16T05:18:58.917Z,97718.06
2023-04-16T05:21:29.391Z,97731.25
2023-04-16T05:24:02.297Z,97719.09
2023-04-16T05:26:32.512Z,97726.75
2023-04-16T05:29:02.740Z,97731.06
2023-04-16T05:31:32.965Z,97737.03
2023-04-16T05:34:03.165Z,97740.13
2023-04-16T05:36:33.474Z,97742.56
2023-04-16T05:39:08.146Z,97747.31
2023-04-16T05:41:38.589Z,97752.84
2023-04-16T05:44:08.902Z,97748.72
2023-04-16T05:46:39.280Z,97757.78
2023-04-16T05:49:09.777Z,97759.91
2023-04-16T05:51:40.221Z,97755.47
2023-04-16T05:54:13.163Z,97758.16
2023-04-16T05:56:43.571Z,97762.16
2023-04-16T05:59:13.822Z,97759.03
2023-04-16T06:01:44.459Z,97757.94
2023-04-16T06:04:14.953Z,97760.06
2023-04-16T06:06:45.266Z,97764.31
2023-04-16T06:09:18.477Z,97778.25
2023-04-16T06:11:48.682Z,97770.16
2023-04-16T06:14:18.883Z,97769.25
2023-04-16T06:16:49.508Z,97770.78
2023-04-16T06:19:19.703Z,97768.59
2023-04-16T06:21:49.919Z,97770.84
2023-04-16T06:24:22.807Z,97771.16
2023-04-16T06:26:53.161Z,97775.47
2023-04-16T06:29:33.564Z,97785.91
2023-04-16T06:32:10.810Z,97785.47
2023-04-16T06:34:41.743Z,97782.03
2023-04-16T06:37:11.970Z,97774.81
2023-04-16T06:39:44.919Z,97787.22
2023-04-16T06:42:15.149Z,97780.13
2023-04-16T06:44:45.365Z,97779.88
2023-04-16T06:47:15.719Z,97776.16
2023-04-16T06:49:46.083Z,97795.66
2023-04-16T06:52:16.510Z,97797.13
2023-04-16T06:54:49.356Z,97790.41
2023-04-16T06:57:19.698Z,97795.38
2023-04-16T06:59:49.875Z,97801.13
2023-04-16T07:02:20.250Z,97805.13
2023-04-16T07:04:52.566Z,97796.78
2023-04-16T07:07:22.805Z,97793.34
2023-04-16T07:09:55.757Z,97801.38
2023-04-16T07:12:25.995Z,97801.38
2023-04-16T07:14:56.880Z,97796.41
2023-04-16T07:17:27.194Z,97800.63
2023-04-16T07:19:57.395Z,97802.53
2023-04-16T07:22:27.584Z,97805.56
2023-04-16T07:25:00.381Z,97811.44
2023-04-16T07:27:30.569Z,97815.22
2023-04-16T07:30:00.814Z,97817.78
2023-04-16T07:32:31.180Z,97809.69
2023-04-16T07:35:01.416Z,97813.25
2023-04-16T07:37:31.704Z,97823.22
2023-04-16T07:40:04.761Z,97822.81
2023-04-16T07:42:35.074Z,97825.13
2023-04-16T07:45:05.265Z,97827.13
2023-04-16T07:47:35.796Z,97832.53
2023-04-16T07:50:06.236Z,97836.72
2023-04-16T07:52:37.547Z,97838.81
2023-04-16T07:55:11.259Z,97840.31
2023-04-16T07:57:41.784Z,97841.31
2023-04-16T08:00:13.296Z,97846.38
2023-04-16T08:02:43.910Z,97852.09
2023-04-16T08:05:14.200Z,97845.56
2023-04-16T08:07:44.608Z,97845.88
2023-04-16T08:10:17.526Z,97836.00
2023-04-16T08:12:47.733Z,97840.31
2023-04-16T08:15:17.974Z,97843.47
2023-04-16T08:17:48.271Z,97852.97
2023-04-16T08:20:19.351Z,97849.06
2023-04-16T08:22:49.817Z,97846.69
2023-04-16T08:25:23.907Z,97855.63
2023-04-16T08:27:54.150Z,97860.50
2023-04-16T08:30:24.410Z,97860.59
2023-04-16T08:32:54.800Z,97863.28
2023-04-16T08:35:25.154Z,97868.03
2023-04-16T08:37:55.369Z,97865.91
2023-04-16T08:40:28.869Z,97874.03
2023-04-16T08:43:02.057Z,97871.00
2023-04-16T08:45:32.582Z,97872.19
2023-04-16T08:48:03.119Z,97871.75
2023-04-16T08:50:33.694Z,97869.97
2023-04-16T08:53:07.648Z,97880.44
2023-04-16T08:55:44.132Z,97879.78
2023-04-16T08:58:17.215Z,97877.00
2023-04-16T09:00:47.565Z,97874.81
2023-04-16T09:03:20.133Z,97877.91
2023-04-16T09:05:51.481Z,97884.03
2023-04-16T09:08:21.801Z,97883.75
2023-04-16T09:10:54.689Z,97887.63
2023-04-16T09:13:25.182Z,97890.47
2023-04-16T09:15:57.376Z,97894.53
2023-04-16T09:18:28.356Z,97892.81
2023-04-16T09:20:59.016Z,97883.44
2023-04-16T09:23:29.261Z,97892.91
2023-04-16T09:26:02.674Z,97899.53
2023-04-16T09:28:42.465Z,97888.34
2023-04-16T09:31:14.364Z,97893.94
2023-04-16T09:33:45.345Z,97896.47
2023-04-16T09:36:15.647Z,97896.72
2023-04-16T09:38:52.822Z,97900.53
2023-04-16T09:41:29.117Z,97902.31
2023-04-16T09:44:00.442Z,97903.47
2023-04-16T09:46:33.596Z,97902.09
2023-04-16T09:49:09.370Z,97906.75
2023-04-16T09:51:45.129Z,97905.31
2023-04-16T09:54:15.845Z,97910.66
2023-04-16T09:56:50.279Z,97915.50
2023-04-16T09:59:21.181Z,97916.38
2023-04-16T10:01:57.338Z,97924.81
2023-04-16T10:04:54.073Z,97917.63
2023-04-16T10:07:24.854Z,97917.75
2023-04-16T10:09:56.232Z,97918.13
2023-04-16T10:12:29.590Z,97921.69
2023-04-16T10:14:59.821Z,97926.59
2023-04-16T10:17:31.176Z,97928.91
2023-04-16T10:20:02.200Z,97928.91
2023-04-16T10:22:32.389Z,97936.25
2023-04-16T10:25:02.799Z,97942.84
2023-04-16T10:27:36.116Z,97944.16
2023-04-16T10:30:07.265Z,97941.84
2023-04-16T10:32:38.328Z,97937.53
2023-04-16T10:35:09.851Z,97939.03
2023-04-16T10:37:40.806Z,97941.59
2023-04-16T10:40:26.140Z,97951.25
2023-04-16T10:43:02.810Z,97936.34
2023-04-16T10:45:37.618Z,97941.44
2023-04-16T10:48:10.177Z,97939.16
2023-04-16T10:50:41.642Z,97944.72
2023-04-16T10:53:22.211Z,97942.97
2023-04-16T10:56:16.105Z,97944.50
2023-04-16T10:58:49.203Z,97937.38
2023-04-16T11:01:20.291Z,97946.25
2023-04-16T11:03:51.062Z,97948.53
2023-04-16T11:06:27.979Z,97948.00
2023-04-16T11:08:58.427Z,97949.81
2023-04-16T11:11:28.921Z,97940.88
2023-04-16T11:14:02.660Z,97950.03
2023-04-16T11:16:35.045Z,97945.47
2023-04-16T11:19:05.265Z,97945.22
2023-04-16T11:21:35.570Z,97951.06
2023-04-16T11:24:05.791Z,97944.22
2023-04-16T11:26:36.235Z,97943.94
2023-04-16T11:29:17.335Z,97943.94
2023-04-16T11:31:53.858Z,97948.78
2023-04-16T11:34:24.686Z,97949.31
2023-04-16T11:36:55.585Z,97951.09
2023-04-16T11:39:26.533Z,97949.06
2023-04-16T11:41:56.961Z,97949.28
2023-04-16T11:44:31.079Z,97941.94
2023-04-16T11:47:01.442Z,97954.41
2023-04-16T11:49:32.034Z,97946.97
2023-04-16T11:52:02.765Z,97941.41
2023-04-16T11:54:35.147Z,97957.66
2023-04-16T11:57:06.747Z,97947.03
2023-04-16T12:00:01.074Z,97954.25
2023-04-16T12:02:40.986Z,97954.19
2023-04-16T12:05:30.990Z,97949.88
2023-04-16T12:08:01.747Z,97945.84
2023-04-16T12:10:32.333Z,97948.13
2023-04-16T12:13:15.910Z,97946.66
2023-04-16T12:15:53.654Z,97946.81
2023-04-16T12:18:27.168Z,97949.63
2023-04-16T12:20:57.634Z,97953.59
2023-04-16T12:23:29.732Z,97956.66
2023-04-16T12:26:02.904Z,97962.19
2023-04-16T12:28:34.946Z,97968.16
2023-04-16T12:31:08.672Z,97965.63
2023-04-16T12:33:39.073Z,97965.16
2023-04-16T12:36:20.955Z,97967.84
2023-04-16T12:38:51.179Z,97968.84
2023-04-16T12:41:22.173Z,97974.22
2023-04-16T12:43:52.389Z,97975.22
2023-04-16T12:46:25.372Z,97970.59
2023-04-16T12:48:57.035Z,97965.19
2023-04-16T12:51:27.449Z,97970.63
2023-04-16T12:53:58.110Z,97968.06
2023-04-16T12:56:31.384Z,97969.19
2023-04-16T12:59:01.863Z,97967.59
2023-04-16T13:01:37.349Z,97976.41
2023-04-16T13:04:08.040Z,97975.47
2023-04-16T13:06:38.671Z,97972.56
2023-04-16T13:09:09.329Z,97971.84
2023-04-16T13:11:39.793Z,97970.56
2023-04-16T13:14:10.039Z,97973.34
2023-04-16T13:16:42.976Z,97972.66
2023-04-16T13:19:13.505Z,97970.72
2023-04-16T13:21:43.926Z,97970.25
2023-04-16T13:24:14.177Z,97966.56
2023-04-16T13:26:44.528Z,97970.44
2023-04-16T13:29:14.888Z,97976.00
2023-04-16T13:31:47.999Z,97981.16
2023-04-16T13:34:18.590Z,97978.97
2023-04-16T13:36:48.910Z,97978.66
2023-04-16T13:39:19.509Z,97982.03
2023-04-16T13:41:50.584Z,97985.16
2023-04-16T13:44:20.883Z,97983.19
2023-04-16T13:46:53.826Z,97974.22
2023-04-16T13:49:24.082Z,97978.84
2023-04-16T13:51:54.217Z,97980.91
2023-04-16T13:54:24.446Z,97985.84
2023-04-16T13:56:54.686Z,97986.53
2023-04-16T13:59:24.903Z,97984.09
2023-04-16T14:01:57.774Z,97986.13
2023-04-16T14:04:28.118Z,97988.66
2023-04-16T14:06:58.379Z,97987.72
2023-04-16T14:09:28.618Z,97991.19
2023-04-16T14:11:58.823Z,97983.09
2023-04-16T14:14:29.118Z,97986.69
2023-04-16T14:17:03.549Z,97993.53
2023-04-16T14:19:33.772Z,97990.47
2023-04-16T14:22:03.996Z,97992.03
2023-04-16T14:24:34.210Z,97987.22
2023-04-16T14:27:04.516Z,97989.22
2023-04-16T14:29:34.724Z,97994.06
2023-04-16T14:32:08.396Z,97999.09
2023-04-16T14:34:38.798Z,97999.34
2023-04-16T14:37:09.250Z,97999.25
2023-04-16T14:39:39.615Z,97999.13
2023-04-16T14:42:09.847Z,98008.97
2023-04-16T14:44:40.430Z,97996.78
2023-04-16T14:47:13.272Z,97998.84
2023-04-16T14:49:43.437Z,98005.16
2023-04-16T14:52:13.739Z,98002.34
2023-04-16T14:54:44.090Z,98002.16
2023-04-16T14:57:14.340Z,98002.03
2023-04-16T14:59:44.822Z,98006.47
2023-04-16T15:02:18.090Z,98009.75
2023-04-16T15:04:48.630Z,98006.72
2023-04-16T15:07:18.915Z,98011.34
2023-04-16T15:09:49.168Z,98019.97
2023-04-16T15:12:19.588Z,98019.69
2023-04-16T15:14:49.800Z,98020.00
2023-04-16T15:17:24.034Z,98021.06
2023-04-16T15:19:54.735Z,98013.69
2023-04-16T15:22:24.948Z,98017.47
2023-04-16T15:24:55.209Z,98022.19
2023-04-16T15:27:25.589Z,98021.25
2023-04-16T15:29:56.016Z,98024.81
2023-04-16T15:32:28.908Z,98019.66
2023-04-16T15:35:00.161Z,98022.09
2023-04-16T15:37:30.399Z,98024.75
2023-04-16T15:40:00.695Z,98029.75
2023-04-16T15:42:31.025Z,98023.31
2023-04-16T15:45:01.338Z,98027.56
2023-04-16T15:47:34.362Z,98035.75
2023-04-16T15:50:04.636Z,98039.03
2023-04-16T15:52:35.009Z,98036.41
2023-04-16T15:55:05.588Z,98041.13
2023-04-16T15:57:35.949Z,98046.41
2023-04-16T16:00:13.569Z,98053.06
2023-04-16T16:02:48.102Z,98051.97
2023-04-16T16:05:19.523Z,98054.47
2023-04-16T16:07:49.815Z,98052.56
2023-04-16T16:10:20.644Z,98052.78
2023-04-16T16:12:51.005Z,98059.84
2023-04-16T16:15:21.322Z,98060.38
2023-04-16T16:17:54.319Z,98064.97
2023-04-16T16:20:24.940Z,98063.41
2023-04-16T16:22:56.783Z,98066.75
2023-04-16T16:25:27.477Z,98071.50
2023-04-16T16:27:59.055Z,98062.81
2023-04-16T16:30:29.356Z,98061.56
2023-04-16T16:33:02.324Z,98066.09
2023-04-16T16:35:32.608Z,98069.00
2023-04-16T16:38:02.894Z,98070.66
2023-04-16T16:40:33.877Z,98073.66
2023-04-16T16:43:04.197Z,98072.88
2023-04-16T16:45:34.756Z,98076.53
2023-04-16T16:48:07.894Z,98075.22
2023-04-16T16:50:38.151Z,98077.16
2023-04-16T16:53:08.393Z,98080.44
2023-04-16T16:55:38.565Z,98081.19
2023-04-16T16:58:09.544Z,98079.09
2023-04-16T17:00:39.904Z,98082.56
2023-04-16T17:03:13.030Z,98084.50
2023-04-16T17:05:43.385Z,98086.44
2023-04-16T17:08:14.143Z,98083.38
2023-04-16T17:10:44.385Z,98083.19
2023-04-16T17:13:19.919Z,98083.38
2023-04-16T17:15:52.824Z,98090.59
2023-04-16T17:18:25.654Z,98092.72
2023-04-16T17:20:55.870Z,98101.63
2023-04-16T17:23:26.125Z,98099.81
2023-04-16T17:25:56.492Z,98101.44
2023-04-16T17:28:27.301Z,98104.22
2023-04-16T17:30:57.794Z,98098.38
2023-04-16T17:33:30.660Z,98103.84
2023-04-16T17:36:00.934Z,98108.44
2023-04-16T17:38:31.300Z,98111.28
2023-04-16T17:41:01.569Z,98107.72
2023-04-16T17:43:31.830Z,98110.41
2023-04-16T17:46:02.157Z,98119.41
2023-04-16T17:48:35.080Z,98124.94
2023-04-16T17:51:12.153Z,98123.50
2023-04-16T17:53:42.805Z,98122.91
2023-04-16T17:56:13.177Z,98123.00
2023-04-16T17:58:46.324Z,98129.66
2023-04-16T18:01:16.577Z,98135.69
2023-04-16T18:03:49.898Z,98137.88
2023-04-16T18:06:20.398Z,98144.03
2023-04-16T18:08:50.885Z,98141.97
2023-04-16T18:11:21.407Z,98149.78
2023-04-16T18:13:54.215Z,98151.56
2023-04-16T18:16:24.836Z,98155.72
2023-04-16T18:18:57.902Z,98156.84
2023-04-16T18:21:30.006Z,98156.84
2023-04-16T18:24:01.258Z,98167.19
2023-04-16T18:26:35.711Z,98165.22
2023-04-16T18:29:06.520Z,98161.41
2023-04-16T18:31:36.799Z,98173.44
2023-04-16T18:34:09.796Z,98173.63
2023-04-16T18:36:39.997Z,98172.84
2023-04-16T18:39:10.470Z,98174.38
2023-04-16T18:41:40.976Z,98175.31
2023-04-16T18:44:11.323Z,98178.75
2023-04-16T18:46:41.504Z,98188.94
2023-04-16T18:49:14.463Z,98186.34
2023-04-16T18:51:45.050Z,98186.19
2023-04-16T18:54:15.446Z,98185.84
2023-04-16T18:56:48.797Z,98196.75
2023-04-16T18:59:19.104Z,98193.38
2023-04-16T19:01:49.382Z,98192.31
2023-04-16T19:04:22.476Z,98193.84
2023-04-16T19:06:52.709Z,98191.25
2023-04-16T19:09:23.063Z,98193.84
2023-04-16T19:11:53.372Z,98194.94
2023-04-16T19:14:23.713Z,98200.94
2023-04-16T19:16:53.998Z,98203.72
2023-04-16T19:19:26.896Z,98203.72
2023-04-16T19:21:57.112Z,98202.50
2023-04-16T19:24:27.452Z,98201.25
2023-04-16T19:26:57.679Z,98208.03
2023-04-16T19:29:28.148Z,98200.78
2023-04-16T19:31:58.547Z,98201.41
2023-04-16T19:34:31.570Z,98205.91
2023-04-16T19:37:02.041Z,98202.94
2023-04-16T19:39:33.395Z,98205.25
2023-04-16T19:42:03.729Z,98204.03
2023-04-16T19:44:33.952Z,98206.69
2023-04-16T19:47:04.196Z,98204.94
2023-04-16T19:49:38.528Z,98206.19
2023-04-16T19:52:08.774Z,98204.94
2023-04-16T19:54:39.006Z,98207.25
2023-04-16T19:57:09.223Z,98210.22
2023-04-16T19:59:39.545Z,98204.19
2023-04-16T20:02:10.449Z,98220.84
2023-04-16T20:04:43.427Z,98216.53
2023-04-16T20:07:13.673Z,98217.59
2023-04-16T20:09:43.892Z,98223.16
2023-04-16T20:12:14.586Z,98221.59
2023-04-16T20:14:45.113Z,98220.06
2023-04-16T20:17:19.821Z,98216.81
2023-04-16T20:19:52.755Z,98217.59
2023-04-16T20:22:22.968Z,98208.81
2023-04-16T20:24:55.387Z,98219.44
2023-04-16T20:27:25.769Z,98219.91
2023-04-16T20:29:56.696Z,98215.78
2023-04-16T20:32:27.791Z,98213.78
2023-04-16T20:35:02.214Z,98211.72
2023-04-16T20:37:32.656Z,98206.84
2023-04-16T20:40:04.793Z,98214.38
2023-04-16T20:42:35.221Z,98211.78
2023-04-16T20:45:05.445Z,98211.78
2023-04-16T20:47:36.860Z,98209.66
2023-04-16T20:50:11.339Z,98206.56
2023-04-16T20:52:42.494Z,98211.66
2023-04-16T20:55:13.148Z,98214.19
2023-04-16T20:57:43.566Z,98208.78
2023-04-16T21:00:15.318Z,98212.50
2023-04-16T21:02:46.100Z,98219.16
2023-04-16T21:05:22.896Z,98218.69
2023-04-16T21:07:55.400Z,98221.16
2023-04-16T21:10:26.223Z,98217.47
2023-04-16T21:12:56.639Z,98218.38
2023-04-16T21:15:27.158Z,98221.75
2023-04-16T21:18:00.881Z,98228.84
2023-04-16T21:20:33.938Z,98225.91
2023-04-16T21:23:04.244Z,98219.88
2023-04-16T21:25:35.135Z,98219.41
2023-04-16T21:28:05.578Z,98222.50
2023-04-16T21:30:36.142Z,98226.69
2023-04-16T21:33:09.443Z,98222.66
2023-04-16T21:35:42.317Z,98224.38
2023-04-16T21:38:12.592Z,98220.25
2023-04-16T21:40:45.287Z,98231.50
2023-04-16T21:43:15.920Z,98221.47
2023-04-16T21:45:46.217Z,98226.56
2023-04-16T21:48:17.291Z,98223.47
2023-04-16T21:50:50.351Z,98231.00
2023-04-16T21:53:21.040Z,98224.88
2023-04-16T21:55:51.358Z,98218.09
2023-04-16T21:58:21.682Z,98219.59
2023-04-16T22:00:52.002Z,98227.66
2023-04-16T22:03:26.721Z,98219.59
2023-04-16T22:06:04.404Z,98215.94
2023-04-16T22:08:34.930Z,98225.34
2023-04-16T22:11:06.077Z,98226.59
2023-04-16T22:13:36.783Z,98222.75
2023-04-16T22:16:09.405Z,98226.44
2023-04-16T22:18:41.483Z,98221.34
2023-04-16T22:21:14.403Z,98223.97
2023-04-16T22:23:44.718Z,98229.06
2023-04-16T22:26:15.082Z,98224.25
2023-04-16T22:28:45.453Z,98227.53
2023-04-16T22:31:15.869Z,98223.38
2023-04-16T22:33:46.143Z,98226.47
2023-04-16T22:36:19.062Z,98226.75
2023-04-16T22:38:49.306Z,98221.06
2023-04-16T22:41:19.596Z,98221.22
2023-04-16T22:43:52.397Z,98220.13
2023-04-16T22:46:24.992Z,98221.22
2023-04-16T22:48:55.422Z,98224.59
2023-04-16T22:51:28.352Z,98223.69
2023-04-16T22:53:58.634Z,98223.69
2023-04-16T22:56:30.626Z,98221.38
2023-04-16T22:59:01.042Z,98221.50
2023-04-16T23:01:31.430Z,98221.84
2023-04-16T23:04:01.909Z,98226.91
2023-04-16T23:06:34.835Z,98221.06
2023-04-16T23:09:05.469Z,98227.69
2023-04-16T23:11:35.693Z,98223.69
2023-04-16T23:14:05.985Z,98223.69
2023-04-16T23:16:36.285Z,98225.38
2023-04-16T23:19:13.017Z,98232.47
2023-04-16T23:21:46.147Z,98229.22
2023-04-16T23:24:17.347Z,98224.91
2023-04-16T23:26:48.266Z,98223.06
2023-04-16T23:29:18.534Z,98222.75
2023-04-16T23:31:48.979Z,98228.59
2023-04-16T23:34:19.443Z,98230.16
2023-04-16T23:36:52.535Z,98232.56
2023-04-16T23:39:22.876Z,98227.66
2023-04-16T23:41:53.148Z,98226.44
2023-04-16T23:44:23.437Z,98233.34
2023-04-16T23:46:53.813Z,98227.81
2023-04-16T23:49:24.091Z,98223.69
2023-04-16T23:51:56.981Z,98218.28
2023-04-16T23:54:27.306Z,98224.91
2023-04-16T23:56:57.433Z,98226.91
2023-04-16T23:59:27.764Z,98228.91
